Terminal Aerodrome Forecast
Issued by NWS

Home | Current Version | Previous Version | Text Only | Print | Product List | Glossary On
Versions: 1 2 3 4 5 6 7 8 9 10 11 12 13 14 15 16 17
000
FTUS44 KEPZ 230600 AAA
TAFTCS
TAF AMD
KTCS 230647Z 2307/2406 02010KT P6SM VCTS BKN030CB OVC080
      TEMPO 2307/2309 VRB20G30KT 1/2SM TSRA FEW010 OVC030CB
     FM230900 23007KT P6SM SCT010 BKN030 BKN100
     FM231900 27008KT P6SM VCTS SCT030 SCT050CB SCT100
     FM240000 29008KT P6SM SCT050 SCT100 SCT200=

USA.gov is the U.S. government's official web portal to all federal, state and local government web resources and services.